Time;durP1;ratioP1;P1;durP2;ratioP2;P2;SDS_P1;SDS_P2;PMS_P1;PMS_P2;Temp;Humidity;BMP_temperature;BMP_pressure;BME280_temperature;BME280_humidity;BME280_pressure;Samples;Min_cycle;Max_cycle;Signal;HPM_P1;HPM_P2
2023/04/15 00:00:29;;;;;;;27.98;6.80;;;14.20;99.90;;;;;;5073991;28;20036;-66
2023/04/15 00:02:55;;;;;;;27.77;6.60;;;14.00;99.90;;;;;;5074017;28;20434;-66
2023/04/15 00:05:21;;;;;;;30.98;7.18;;;13.70;99.90;;;;;;5073752;28;20029;-66
2023/04/15 00:07:46;;;;;;;32.25;6.88;;;13.50;99.90;;;;;;5073919;28;20024;-66
2023/04/15 00:10:15;;;;;;;27.85;6.82;;;13.40;99.90;;;;;;5106959;28;20027;-66
2023/04/15 00:12:41;;;;;;;34.50;8.02;;;13.30;99.90;;;;;;5073825;28;20076;-66
2023/04/15 00:15:08;;;;;;;34.92;7.97;;;13.20;99.90;;;;;;5073924;28;20051;-66
2023/04/15 00:17:34;;;;;;;30.20;7.20;;;13.20;99.90;;;;;;5073869;28;20044;-66
2023/04/15 00:20:00;;;;;;;35.28;6.72;;;13.10;99.90;;;;;;5073468;28;20033;-66
2023/04/15 00:22:26;;;;;;;33.63;7.05;;;13.10;99.90;;;;;;5073548;28;20039;-66
2023/04/15 00:24:52;;;;;;;29.38;6.40;;;13.10;99.90;;;;;;5073949;28;20062;-65
2023/04/15 00:27:18;;;;;;;33.63;7.60;;;13.10;99.90;;;;;;5074012;28;20232;-66
2023/04/15 00:29:44;;;;;;;28.20;5.97;;;13.00;99.90;;;;;;5073692;28;20074;-66
2023/04/15 00:32:09;;;;;;;27.45;6.53;;;13.00;99.90;;;;;;5073443;28;20437;-66
2023/04/15 00:34:35;;;;;;;27.25;6.40;;;13.00;99.90;;;;;;5073226;28;20115;-66
2023/04/15 00:37:01;;;;;;;30.85;7.28;;;12.90;99.90;;;;;;5073402;28;20112;-64
2023/04/15 00:39:27;;;;;;;25.80;6.60;;;12.90;99.90;;;;;;5073802;28;20026;-66
2023/04/15 00:41:53;;;;;;;27.67;6.43;;;12.90;99.90;;;;;;5073261;28;20026;-66
2023/04/15 00:44:19;;;;;;;23.95;5.07;;;12.90;99.90;;;;;;5073416;28;20039;-66
2023/04/15 00:46:49;;;;;;;27.63;6.03;;;12.50;99.90;;;;;;5073054;28;20024;-67
2023/04/15 00:49:17;;;;;;;29.85;6.55;;;12.40;99.90;;;;;;5073026;28;20028;-66
2023/04/15 00:51:43;;;;;;;26.25;5.60;;;12.80;99.90;;;;;;5073448;28;20020;-66
2023/04/15 00:54:09;;;;;;;18.65;4.20;;;13.10;99.90;;;;;;5073156;28;20070;-66
2023/04/15 00:56:36;;;;;;;20.50;5.05;;;13.40;99.90;;;;;;5073280;28;20028;-67
2023/04/15 00:59:02;;;;;;;19.10;4.63;;;13.30;99.90;;;;;;5073006;28;20021;-67
2023/04/15 01:01:28;;;;;;;16.40;3.78;;;13.30;99.90;;;;;;5072780;28;20422;-66
2023/04/15 01:03:57;;;;;;;21.13;4.43;;;13.40;99.90;;;;;;5071767;28;20522;-66
2023/04/15 01:06:23;;;;;;;18.02;3.78;;;13.30;99.90;;;;;;5072766;28;20024;-66
2023/04/15 01:08:49;;;;;;;18.00;4.07;;;13.40;99.90;;;;;;5072911;28;20433;-66
2023/04/15 01:11:16;;;;;;;21.23;4.38;;;13.20;99.90;;;;;;5072728;28;20013;-66
2023/04/15 01:13:42;;;;;;;19.83;4.53;;;13.10;99.90;;;;;;5072723;28;20414;-66
2023/04/15 01:16:08;;;;;;;22.63;5.38;;;12.90;99.90;;;;;;5073099;28;20032;-66
2023/04/15 01:18:36;;;;;;;23.13;5.25;;;12.80;99.90;;;;;;5072451;28;20077;-66
2023/04/15 01:21:03;;;;;;;28.13;5.88;;;12.80;99.90;;;;;;5072608;28;20044;-67
2023/04/15 01:23:29;;;;;;;25.95;5.65;;;12.70;99.90;;;;;;5071491;28;20036;-66
2023/04/15 01:25:56;;;;;;;24.50;5.07;;;12.50;99.90;;;;;;5072801;28;20542;-66
2023/04/15 01:28:21;;;;;;;22.08;5.43;;;12.50;99.90;;;;;;5072393;28;20111;-65
2023/04/15 01:30:47;;;;;;;22.95;5.03;;;12.50;99.90;;;;;;5072538;28;20063;-66
2023/04/15 01:33:13;;;;;;;27.80;4.60;;;12.40;99.90;;;;;;5072214;28;20021;-65
2023/04/15 01:35:39;;;;;;;22.83;5.28;;;12.50;99.90;;;;;;5072453;28;20409;-66
2023/04/15 01:38:08;;;;;;;22.42;5.00;;;12.50;99.90;;;;;;5072094;28;20024;-66
2023/04/15 01:40:34;;;;;;;12.80;2.83;;;12.30;99.90;;;;;;5072737;28;20471;-66
2023/04/15 01:43:01;;;;;;;10.98;2.35;;;12.00;99.90;;;;;;5072070;28;20036;-65
2023/04/15 01:45:27;;;;;;;13.27;3.00;;;11.90;99.90;;;;;;5072033;28;20445;-66
2023/04/15 01:47:53;;;;;;;13.35;2.50;;;12.00;99.90;;;;;;5072379;28;20025;-65
2023/04/15 01:50:19;;;;;;;11.82;2.85;;;12.00;99.90;;;;;;5072231;28;20445;-65
2023/04/15 01:52:45;;;;;;;13.38;2.80;;;12.00;99.90;;;;;;5072564;28;20020;-66
2023/04/15 01:55:12;;;;;;;12.05;2.80;;;12.00;99.90;;;;;;5072274;28;20024;-66
2023/04/15 01:57:38;;;;;;;12.73;3.13;;;12.00;99.90;;;;;;5071924;28;20035;-64
2023/04/15 02:00:06;;;;;;;15.20;2.97;;;12.00;99.90;;;;;;5071865;28;20021;-65
2023/04/15 02:02:32;;;;;;;14.55;3.00;;;12.00;99.90;;;;;;5072162;28;20036;-66
2023/04/15 02:04:58;;;;;;;12.43;3.05;;;12.50;99.90;;;;;;5072482;28;20082;-65
2023/04/15 02:07:24;;;;;;;12.68;3.00;;;12.90;99.90;;;;;;5071906;28;20027;-65
2023/04/15 02:09:50;;;;;;;8.48;2.60;;;13.10;99.90;;;;;;5072042;28;20031;-65
2023/04/15 02:12:15;;;;;;;11.93;2.53;;;13.30;99.90;;;;;;5071471;28;20037;-66
2023/04/15 02:14:41;;;;;;;11.82;2.63;;;13.50;99.90;;;;;;5071403;28;20112;-65
2023/04/15 02:17:07;;;;;;;9.80;2.25;;;13.40;99.90;;;;;;5072282;28;20031;-65
2023/04/15 02:19:34;;;;;;;9.93;2.60;;;13.40;99.90;;;;;;5072014;28;20512;-65
2023/04/15 02:22:00;;;;;;;7.80;1.90;;;13.50;99.90;;;;;;5071800;28;20021;-65
2023/04/15 02:24:27;;;;;;;10.18;2.88;;;13.40;99.90;;;;;;5071981;28;20158;-65
2023/04/15 02:26:53;;;;;;;13.10;3.15;;;12.70;99.90;;;;;;5072234;28;20047;-65
2023/04/15 02:29:19;;;;;;;14.52;3.40;;;12.40;99.90;;;;;;5071598;28;20502;-66
2023/04/15 02:31:45;;;;;;;13.68;3.10;;;12.20;99.90;;;;;;5071839;28;20433;-65
2023/04/15 02:34:10;;;;;;;13.32;3.55;;;12.10;99.90;;;;;;5072026;28;20028;-65
2023/04/15 02:36:36;;;;;;;19.80;4.25;;;12.00;99.90;;;;;;5071687;28;20020;-65
2023/04/15 02:39:03;;;;;;;18.70;4.63;;;11.80;99.90;;;;;;5071774;28;20032;-64
2023/04/15 02:41:29;;;;;;;20.77;4.25;;;11.80;99.90;;;;;;5071567;28;20033;-66
2023/04/15 02:43:55;;;;;;;25.45;5.00;;;11.80;99.90;;;;;;5071382;28;20040;-65
2023/04/15 02:46:21;;;;;;;24.13;5.32;;;11.70;99.90;;;;;;5071652;28;20386;-66
2023/04/15 02:48:52;;;;;;;26.67;5.72;;;11.80;99.90;;;;;;5071976;28;20570;-64
2023/04/15 02:51:20;;;;;;;26.95;4.97;;;11.90;99.90;;;;;;5071750;28;20027;-66
2023/04/15 02:53:47;;;;;;;28.77;6.00;;;11.80;99.90;;;;;;5071718;28;20048;-66
2023/04/15 02:56:14;;;;;;;29.63;5.13;;;11.80;99.90;;;;;;5071508;28;20033;-65
2023/04/15 02:58:40;;;;;;;23.85;4.82;;;11.80;99.90;;;;;;5071187;28;20028;-65
2023/04/15 03:01:07;;;;;;;23.70;4.97;;;11.70;99.90;;;;;;5071482;28;20482;-66
2023/04/15 03:03:33;;;;;;;21.33;4.65;;;11.70;99.90;;;;;;5071920;28;20525;-65
2023/04/15 03:05:59;;;;;;;22.20;5.47;;;11.70;99.90;;;;;;5071486;28;20044;-65
2023/04/15 03:08:24;;;;;;;30.33;5.85;;;11.70;99.90;;;;;;5071309;28;20040;-65
2023/04/15 03:10:51;;;;;;;25.80;5.20;;;11.60;99.90;;;;;;5071246;28;20016;-65
2023/04/15 03:13:17;;;;;;;20.20;4.35;;;11.70;99.90;;;;;;5070973;28;20083;-65
2023/04/15 03:15:47;;;;;;;23.35;4.53;;;11.90;99.90;;;;;;5071368;28;20048;-65
2023/04/15 03:18:13;;;;;;;18.83;4.85;;;12.20;99.90;;;;;;5071414;28;20108;-65
2023/04/15 03:20:38;;;;;;;17.20;4.38;;;12.40;99.90;;;;;;5071381;28;20108;-65
2023/04/15 03:23:04;;;;;;;16.13;3.53;;;12.50;99.90;;;;;;5071460;28;20040;-65
2023/04/15 03:25:30;;;;;;;17.80;3.78;;;12.70;99.90;;;;;;5071316;28;20494;-65
2023/04/15 03:27:56;;;;;;;18.00;3.58;;;12.60;99.90;;;;;;5074624;28;20120;-65
2023/04/15 03:30:21;;;;;;;14.50;3.33;;;12.60;99.90;;;;;;5074823;28;20426;-65
2023/04/15 03:32:47;;;;;;;16.67;3.95;;;12.60;99.90;;;;;;5074684;28;20116;-65
2023/04/15 03:35:13;;;;;;;12.30;2.80;;;12.40;99.90;;;;;;5075154;28;20028;-65
2023/04/15 03:37:38;;;;;;;19.02;3.63;;;12.20;99.90;;;;;;5074691;28;20036;-65
2023/04/15 03:40:04;;;;;;;11.50;2.95;;;12.00;99.90;;;;;;5074545;28;20028;-65
2023/04/15 03:42:30;;;;;;;12.27;3.28;;;12.00;99.90;;;;;;5074124;28;20032;-66
2023/04/15 03:44:56;;;;;;;12.57;3.20;;;11.90;99.90;;;;;;5074589;28;20021;-65
2023/04/15 03:47:22;;;;;;;12.95;3.50;;;11.90;99.90;;;;;;5074419;28;20029;-65
2023/04/15 03:49:47;;;;;;;12.75;3.17;;;11.80;99.90;;;;;;5074948;28;20057;-66
2023/04/15 03:52:13;;;;;;;15.57;3.40;;;11.80;99.90;;;;;;5073058;28;20493;-65
2023/04/15 03:54:39;;;;;;;12.10;2.83;;;11.80;99.90;;;;;;5074405;28;20068;-65
2023/04/15 03:57:04;;;;;;;15.02;2.95;;;11.80;99.90;;;;;;5074041;28;20021;-65
2023/04/15 03:59:30;;;;;;;17.45;3.58;;;11.70;99.90;;;;;;5074090;28;20025;-65
2023/04/15 04:01:55;;;;;;;18.65;4.03;;;11.70;99.90;;;;;;5074394;28;20028;-66
2023/04/15 04:04:21;;;;;;;18.52;3.53;;;11.80;99.90;;;;;;5074315;28;20510;-65
2023/04/15 04:06:47;;;;;;;19.75;3.83;;;11.70;99.90;;;;;;5074353;28;20021;-65
2023/04/15 04:09:12;;;;;;;19.58;3.72;;;11.70;99.90;;;;;;5090930;28;20028;-66
2023/04/15 04:11:38;;;;;;;18.48;3.90;;;11.70;99.90;;;;;;5093648;28;20086;-65
2023/04/15 04:14:04;;;;;;;17.33;3.75;;;11.70;99.90;;;;;;5094328;28;20021;-65
2023/04/15 04:16:30;;;;;;;15.02;3.25;;;11.70;99.90;;;;;;5094145;28;20423;-65
2023/04/15 04:18:55;;;;;;;17.08;3.90;;;11.70;99.90;;;;;;5094128;28;20032;-66
2023/04/15 04:21:21;;;;;;;17.92;3.95;;;11.70;99.90;;;;;;5094418;28;20020;-65
2023/04/15 04:23:47;;;;;;;19.67;4.07;;;11.70;99.90;;;;;;5093733;28;20036;-65
2023/04/15 04:26:13;;;;;;;18.75;4.00;;;11.80;99.90;;;;;;5093362;28;20028;-65
2023/04/15 04:28:39;;;;;;;16.85;3.90;;;12.30;99.90;;;;;;5093897;28;20040;-65
2023/04/15 04:31:06;;;;;;;18.58;3.58;;;12.60;99.90;;;;;;5094207;28;20021;-65
2023/04/15 04:33:32;;;;;;;14.20;3.50;;;12.50;99.90;;;;;;5093682;28;20025;-65
2023/04/15 04:35:58;;;;;;;17.95;3.65;;;12.60;99.90;;;;;;5093757;28;20440;-65
2023/04/15 04:38:24;;;;;;;21.20;4.18;;;12.60;99.90;;;;;;5093474;28;20028;-66
2023/04/15 04:40:50;;;;;;;16.45;4.13;;;12.50;99.90;;;;;;5093621;28;20045;-65
2023/04/15 04:43:15;;;;;;;17.05;4.10;;;12.60;99.90;;;;;;5093641;28;20089;-65
2023/04/15 04:45:41;;;;;;;18.83;4.22;;;12.50;99.90;;;;;;5093430;28;20028;-65
2023/04/15 04:48:07;;;;;;;18.73;4.38;;;12.30;99.90;;;;;;5093472;28;20096;-65
2023/04/15 04:50:34;;;;;;;17.33;4.07;;;12.10;99.90;;;;;;5093504;28;20038;-65
2023/04/15 04:53:00;;;;;;;17.20;3.78;;;11.80;99.90;;;;;;5093401;28;20054;-65
2023/04/15 04:55:26;;;;;;;14.10;3.80;;;11.70;99.90;;;;;;5093553;28;20023;-66
2023/04/15 04:57:52;;;;;;;16.42;3.97;;;11.70;99.90;;;;;;5093401;28;20095;-65
2023/04/15 05:00:18;;;;;;;15.50;4.05;;;11.60;99.90;;;;;;5093289;28;20550;-66
2023/04/15 05:02:44;;;;;;;16.08;3.50;;;11.60;99.90;;;;;;5093237;28;20077;-66
2023/04/15 05:05:10;;;;;;;15.82;3.95;;;11.60;99.90;;;;;;5093687;28;20034;-65
2023/04/15 05:07:37;;;;;;;15.88;3.78;;;11.50;99.90;;;;;;5092929;28;20065;-65
2023/04/15 05:10:03;;;;;;;18.73;3.85;;;11.60;99.90;;;;;;5092736;28;20072;-65
2023/04/15 05:12:29;;;;;;;15.55;3.58;;;11.50;99.90;;;;;;5092959;28;20494;-65
2023/04/15 05:14:54;;;;;;;15.80;3.80;;;11.50;99.90;;;;;;5093014;28;20033;-65
2023/04/15 05:17:20;;;;;;;17.85;3.72;;;11.40;99.90;;;;;;5093082;28;20051;-65
2023/04/15 05:19:46;;;;;;;18.73;3.80;;;11.40;99.90;;;;;;5093272;28;20153;-65
2023/04/15 05:22:12;;;;;;;20.65;4.10;;;11.40;99.90;;;;;;5092481;28;20490;-65
2023/04/15 05:24:37;;;;;;;19.17;3.78;;;11.40;99.90;;;;;;5092499;28;20031;-66
2023/04/15 05:27:03;;;;;;;20.80;4.45;;;11.40;99.90;;;;;;5093096;28;20032;-65
2023/04/15 05:29:29;;;;;;;17.95;3.63;;;11.30;99.90;;;;;;5093017;28;20024;-64
2023/04/15 05:31:55;;;;;;;18.30;3.88;;;11.20;99.90;;;;;;5092908;28;20095;-65
2023/04/15 05:34:21;;;;;;;18.52;3.67;;;11.30;99.90;;;;;;5092723;28;20042;-65
2023/04/15 05:36:47;;;;;;;18.67;3.38;;;11.20;99.90;;;;;;5092692;28;20032;-64
2023/04/15 05:39:13;;;;;;;14.50;3.90;;;11.60;99.90;;;;;;5092350;28;20024;-65
2023/04/15 05:41:38;;;;;;;18.60;4.03;;;11.90;99.90;;;;;;5092496;28;20118;-63
2023/04/15 05:44:06;;;;;;;14.77;3.05;;;12.10;99.90;;;;;;5092749;28;20089;-65
2023/04/15 05:46:32;;;;;;;19.27;4.45;;;12.10;99.90;;;;;;5092549;28;20024;-64
2023/04/15 05:48:57;;;;;;;18.77;4.30;;;12.00;99.90;;;;;;5091948;28;20431;-65
2023/04/15 05:51:23;;;;;;;16.35;3.40;;;12.00;99.90;;;;;;5092099;28;20410;-65
2023/04/15 05:53:49;;;;;;;11.35;3.30;;;12.00;99.90;;;;;;5092147;28;20114;-65
2023/04/15 05:56:14;;;;;;;16.90;3.47;;;11.90;99.90;;;;;;5092721;28;20035;-64
2023/04/15 05:58:40;;;;;;;15.25;3.60;;;11.90;99.90;;;;;;5090964;28;20024;-65
2023/04/15 06:01:06;;;;;;;18.63;3.92;;;11.60;99.90;;;;;;5092253;28;20077;-65
2023/04/15 06:03:32;;;;;;;16.65;4.28;;;11.50;99.90;;;;;;5092283;28;20032;-65
2023/04/15 06:05:58;;;;;;;15.40;3.78;;;11.40;99.90;;;;;;5092101;28;20390;-65
2023/04/15 06:08:23;;;;;;;13.55;3.40;;;11.20;99.90;;;;;;5090611;28;20032;-65
2023/04/15 06:10:49;;;;;;;17.73;3.78;;;11.20;99.90;;;;;;5092295;28;20078;-64
2023/04/15 06:13:15;;;;;;;16.00;3.30;;;11.20;99.90;;;;;;5092001;28;20040;-66
2023/04/15 06:15:42;;;;;;;17.50;3.53;;;11.20;99.90;;;;;;5092191;28;20070;-66
2023/04/15 06:18:07;;;;;;;19.00;4.13;;;11.20;99.90;;;;;;5092312;28;20482;-65
2023/04/15 06:20:33;;;;;;;16.00;3.55;;;11.20;99.90;;;;;;5091932;28;20067;-65
2023/04/15 06:22:59;;;;;;;13.57;3.40;;;11.30;99.90;;;;;;5090828;28;20089;-65
2023/04/15 06:25:25;;;;;;;11.68;3.28;;;11.20;99.90;;;;;;5091987;28;20028;-65
2023/04/15 06:27:50;;;;;;;15.88;3.50;;;11.10;99.90;;;;;;5091333;28;20027;-65
2023/04/15 06:30:16;;;;;;;18.05;3.80;;;11.10;99.90;;;;;;5092285;28;20409;-64
2023/04/15 06:32:41;;;;;;;15.05;3.83;;;11.10;99.90;;;;;;5092190;28;20382;-65
2023/04/15 06:35:08;;;;;;;17.52;3.72;;;11.10;99.90;;;;;;5092064;28;20607;-65
2023/04/15 06:37:33;;;;;;;14.23;3.45;;;11.10;99.90;;;;;;5091698;28;20039;-64
2023/04/15 06:39:59;;;;;;;15.63;3.33;;;11.10;99.90;;;;;;5091964;28;20036;-66
2023/04/15 06:42:25;;;;;;;12.95;3.35;;;11.20;99.90;;;;;;5091841;28;20028;-65
2023/04/15 06:44:50;;;;;;;13.23;3.28;;;11.40;99.90;;;;;;5091886;28;20028;-66
2023/04/15 06:47:16;;;;;;;14.95;3.97;;;11.50;99.90;;;;;;5092328;28;20024;-66
2023/04/15 06:49:42;;;;;;;14.38;3.85;;;11.70;99.90;;;;;;5091792;28;20032;-65
2023/04/15 06:52:09;;;;;;;15.55;3.75;;;11.80;99.90;;;;;;5091299;28;20028;-65
2023/04/15 06:54:35;;;;;;;13.13;3.30;;;11.60;99.90;;;;;;5091953;28;20024;-65
2023/04/15 06:57:00;;;;;;;14.30;3.30;;;11.70;99.90;;;;;;5091730;28;20561;-65
2023/04/15 06:59:26;;;;;;;13.60;3.72;;;11.80;99.90;;;;;;5091815;28;20039;-65
2023/04/15 07:01:52;;;;;;;16.52;3.10;;;11.70;99.90;;;;;;5094209;28;20031;-65
2023/04/15 07:04:18;;;;;;;14.48;3.25;;;11.80;99.90;;;;;;5095501;28;20043;-65
2023/04/15 07:06:43;;;;;;;14.38;3.50;;;11.70;99.90;;;;;;5095270;28;20020;-65
2023/04/15 07:09:09;;;;;;;16.80;3.20;;;11.60;99.90;;;;;;5095397;28;20032;-65
2023/04/15 07:11:35;;;;;;;14.60;3.22;;;11.60;99.90;;;;;;5095283;28;20044;-65
2023/04/15 07:14:01;;;;;;;16.20;3.40;;;11.60;99.90;;;;;;5095496;28;20069;-66
2023/04/15 07:16:27;;;;;;;13.05;3.30;;;11.60;99.90;;;;;;5095704;28;20081;-65
2023/04/15 07:18:52;;;;;;;15.48;3.53;;;11.70;99.90;;;;;;5095053;28;20036;-64
2023/04/15 07:21:18;;;;;;;21.55;3.85;;;11.70;99.90;;;;;;5095328;28;20020;-65
2023/04/15 07:23:44;;;;;;;16.95;3.25;;;11.70;99.90;;;;;;5095060;28;20040;-65
2023/04/15 07:26:10;;;;;;;12.88;3.08;;;11.70;99.90;;;;;;5095451;28;20062;-65
2023/04/15 07:28:35;;;;;;;14.23;3.28;;;11.60;99.90;;;;;;5095252;28;20031;-65
2023/04/15 07:31:01;;;;;;;12.68;3.72;;;11.50;99.90;;;;;;5095031;28;20043;-65
2023/04/15 07:33:27;;;;;;;17.02;4.28;;;11.40;99.90;;;;;;5094756;28;20394;-65
2023/04/15 07:35:52;;;;;;;12.88;3.13;;;11.50;99.90;;;;;;5093661;28;20032;-65
2023/04/15 07:38:18;;;;;;;10.38;2.97;;;11.50;99.90;;;;;;5095004;28;20040;-65
2023/04/15 07:40:45;;;;;;;15.23;3.53;;;11.60;99.90;;;;;;5095286;28;20020;-65
2023/04/15 07:43:12;;;;;;;10.48;3.20;;;11.70;99.90;;;;;;5094918;28;20024;-65
2023/04/15 07:45:38;;;;;;;12.15;3.22;;;11.80;99.90;;;;;;5094765;28;20043;-66
2023/04/15 07:48:05;;;;;;;14.93;3.47;;;11.90;99.90;;;;;;5094305;28;20402;-65
2023/04/15 07:50:31;;;;;;;12.30;3.05;;;11.90;99.90;;;;;;5095137;28;20028;-65
2023/04/15 07:52:57;;;;;;;13.32;3.60;;;11.80;99.90;;;;;;5094641;28;20057;-66
2023/04/15 07:55:22;;;;;;;9.80;3.25;;;11.90;99.90;;;;;;5094980;28;20020;-66
2023/04/15 07:57:49;;;;;;;10.98;2.80;;;12.00;99.90;;;;;;5094939;28;20393;-66
2023/04/15 08:00:15;;;;;;;13.63;2.90;;;12.10;99.90;;;;;;5094201;28;20024;-65
2023/04/15 08:02:42;;;;;;;11.07;2.60;;;12.20;99.90;;;;;;5094033;28;20040;-65
2023/04/15 08:05:09;;;;;;;12.52;2.60;;;12.40;99.90;;;;;;5094861;28;20515;-66
2023/04/15 08:07:36;;;;;;;11.07;2.90;;;12.50;99.90;;;;;;5094236;28;20056;-65
2023/04/15 08:10:01;;;;;;;13.48;3.22;;;12.50;99.90;;;;;;5094290;28;20107;-66
2023/04/15 08:12:27;;;;;;;11.93;2.97;;;12.60;99.90;;;;;;5093694;28;20079;-65
2023/04/15 08:14:54;;;;;;;14.20;3.30;;;12.50;99.90;;;;;;5094387;28;20024;-65
2023/04/15 08:17:20;;;;;;;12.63;3.00;;;12.50;99.90;;;;;;5093884;28;20158;-65
2023/04/15 08:19:47;;;;;;;13.05;2.90;;;12.30;99.90;;;;;;5094418;28;20050;-64
2023/04/15 08:22:13;;;;;;;16.98;3.72;;;12.10;99.90;;;;;;5094129;28;20103;-65
2023/04/15 08:24:39;;;;;;;13.00;3.08;;;12.00;99.90;;;;;;5094270;28;20509;-65
2023/04/15 08:27:04;;;;;;;12.98;3.00;;;12.00;99.90;;;;;;5094023;28;20098;-65
2023/04/15 08:29:34;;;;;;;14.02;3.30;;;11.90;99.90;;;;;;5093869;28;20031;-65
2023/04/15 08:32:03;;;;;;;15.93;4.25;;;11.90;99.90;;;;;;5093480;28;20019;-65
2023/04/15 08:34:29;;;;;;;16.00;3.78;;;12.00;99.90;;;;;;5093866;28;20444;-65
2023/04/15 08:36:55;;;;;;;12.98;3.35;;;12.00;99.90;;;;;;5093777;28;20023;-65
2023/04/15 08:39:21;;;;;;;13.00;3.42;;;12.00;99.90;;;;;;5093713;28;20031;-65
2023/04/15 08:41:47;;;;;;;13.30;3.60;;;12.10;99.90;;;;;;5094001;28;20375;-65
2023/04/15 08:44:14;;;;;;;13.93;3.03;;;12.20;99.90;;;;;;5093437;28;20482;-64
2023/04/15 08:46:41;;;;;;;12.82;3.45;;;12.30;99.90;;;;;;5093327;28;20024;-65
2023/04/15 08:49:13;;;;;;;14.27;3.00;;;12.20;99.90;;;;;;5093502;28;20476;-65
2023/04/15 08:51:40;;;;;;;7.90;2.60;;;12.20;99.90;;;;;;5093732;28;20085;-65
2023/04/15 08:54:07;;;;;;;14.65;3.40;;;12.10;99.90;;;;;;5093834;28;20024;-65
2023/04/15 08:56:33;;;;;;;14.23;3.30;;;12.20;99.90;;;;;;5093437;28;20081;-65
2023/04/15 08:58:59;;;;;;;12.85;3.25;;;12.10;99.90;;;;;;5093341;28;20027;-65
2023/04/15 09:01:25;;;;;;;11.88;3.00;;;12.20;99.90;;;;;;5093044;28;20027;-65
2023/04/15 09:03:53;;;;;;;14.63;3.55;;;12.40;99.90;;;;;;5093292;28;20036;-66
2023/04/15 09:06:20;;;;;;;17.70;3.45;;;12.50;99.90;;;;;;5093693;28;20020;-66
2023/04/15 09:08:46;;;;;;;14.38;3.10;;;12.70;99.90;;;;;;5093090;28;20493;-66
2023/04/15 09:11:12;;;;;;;15.32;3.28;;;13.00;99.90;;;;;;5092969;28;20026;-66
2023/04/15 09:13:38;;;;;;;11.05;2.78;;;13.10;99.90;;;;;;5093150;28;20564;-66
2023/04/15 09:16:05;;;;;;;12.45;2.90;;;13.20;99.90;;;;;;5092757;28;20031;-66
2023/04/15 09:18:33;;;;;;;14.48;2.90;;;13.20;99.90;;;;;;5093409;28;20020;-66
2023/04/15 09:21:07;;;;;;;10.60;3.00;;;13.20;99.90;;;;;;5093148;28;20028;-65
2023/04/15 09:23:34;;;;;;;10.10;2.72;;;13.20;99.90;;;;;;5092004;28;20122;-65
2023/04/15 09:26:01;;;;;;;8.20;2.65;;;13.40;99.90;;;;;;5092888;28;20447;-65
2023/04/15 09:28:28;;;;;;;10.35;2.58;;;13.40;99.90;;;;;;5092872;28;20031;-65
2023/04/15 09:31:01;;;;;;;10.57;3.35;;;13.40;99.90;;;;;;5092497;28;20054;-65
2023/04/15 09:33:28;;;;;;;9.93;2.70;;;13.20;99.90;;;;;;5093195;28;20065;-65
2023/04/15 09:36:01;;;;;;;9.30;2.45;;;13.20;99.90;;;;;;5092799;28;20039;-65
2023/04/15 09:38:27;;;;;;;10.30;2.30;;;13.10;99.90;;;;;;5092758;28;20024;-65
2023/04/15 09:40:53;;;;;;;8.18;2.13;;;13.10;99.90;;;;;;5092512;28;20254;-65
2023/04/15 09:43:19;;;;;;;9.02;2.60;;;13.10;99.90;;;;;;5093001;28;20405;-65
2023/04/15 09:45:50;;;;;;;7.95;2.42;;;13.00;99.90;;;;;;5092283;28;20441;-65
2023/04/15 09:48:27;;;;;;;13.50;2.80;;;13.10;99.90;;;;;;5092495;28;20146;-65
2023/04/15 09:50:57;;;;;;;14.88;3.25;;;13.10;99.90;;;;;;5092431;28;20020;-65
2023/04/15 09:53:24;;;;;;;8.63;2.55;;;13.10;99.90;;;;;;5092477;28;20036;-65
2023/04/15 09:55:57;;;;;;;7.65;2.38;;;13.10;99.90;;;;;;5092484;28;20028;-65
2023/04/15 09:58:34;;;;;;;11.65;2.53;;;13.10;99.90;;;;;;5092494;28;20024;-65
2023/04/15 10:01:02;;;;;;;12.15;2.67;;;13.20;99.90;;;;;;5092257;28;20036;-65
2023/04/15 10:03:33;;;;;;;10.35;2.50;;;13.20;99.90;;;;;;5092346;28;20036;-65
2023/04/15 10:05:59;;;;;;;9.93;2.88;;;13.10;99.90;;;;;;5092294;28;20048;-65
2023/04/15 10:08:34;;;;;;;12.88;2.90;;;13.10;99.90;;;;;;5092184;28;20469;-65
2023/04/15 10:11:03;;;;;;;10.00;2.45;;;13.10;99.90;;;;;;5092063;28;20032;-65
2023/04/15 10:13:36;;;;;;;9.18;2.58;;;13.20;99.90;;;;;;5092217;28;20565;-65
2023/04/15 10:16:09;;;;;;;12.70;2.88;;;13.30;99.90;;;;;;5092192;28;20021;-65
2023/04/15 10:18:39;;;;;;;11.90;2.83;;;13.40;99.90;;;;;;5092355;28;20036;-65
2023/04/15 10:21:07;;;;;;;8.70;2.30;;;13.50;99.90;;;;;;5092082;28;20047;-66
2023/04/15 10:23:33;;;;;;;10.73;2.80;;;13.80;99.90;;;;;;5091893;28;20106;-66
2023/04/15 10:25:59;;;;;;;9.43;2.70;;;14.00;99.90;;;;;;5092580;28;20103;-65
2023/04/15 10:28:25;;;;;;;10.85;2.58;;;13.90;99.90;;;;;;5091814;28;20020;-65
2023/04/15 10:30:52;;;;;;;11.05;2.72;;;13.90;99.90;;;;;;5091989;28;20074;-65
2023/04/15 10:33:21;;;;;;;9.43;2.35;;;14.00;99.90;;;;;;5092102;28;20032;-66
2023/04/15 10:35:50;;;;;;;10.27;2.47;;;14.00;99.90;;;;;;5094160;28;20474;-65
2023/04/15 10:38:34;;;;;;;12.65;3.13;;;14.00;99.90;;;;;;5096117;28;20482;-65
2023/04/15 10:41:19;;;;;;;12.45;2.60;;;14.00;99.90;;;;;;5095898;28;20120;-65
2023/04/15 10:43:56;;;;;;;10.70;2.72;;;13.80;99.90;;;;;;5095948;28;20044;-65
2023/04/15 10:46:38;;;;;;;10.43;2.58;;;13.60;99.90;;;;;;5095965;28;20020;-65
2023/04/15 10:49:24;;;;;;;7.95;2.15;;;13.70;99.90;;;;;;5095757;28;20032;-65
2023/04/15 10:51:57;;;;;;;9.07;2.38;;;13.80;99.90;;;;;;5095872;28;20020;-65
2023/04/15 10:54:23;;;;;;;;;;;13.80;99.90;;;;;;5096165;28;20091;-65
2023/04/15 10:57:11;;;;;;;8.70;2.67;;;13.80;99.90;;;;;;5095827;28;20010;-65
2023/04/15 10:59:58;;;;;;;12.13;2.65;;;13.80;99.90;;;;;;5091953;28;20039;-65
2023/04/15 11:02:53;;;;;;;10.25;2.60;;;13.80;99.90;;;;;;5095599;28;20496;-65
2023/04/15 11:05:20;;;;;;;8.02;2.20;;;13.70;99.90;;;;;;5090803;28;20097;-65
2023/04/15 11:07:47;;;;;;;11.63;2.47;;;13.90;99.90;;;;;;5095494;28;20095;-65
2023/04/15 11:10:12;;;;;;;9.65;2.70;;;13.90;99.90;;;;;;5095358;28;20031;-65
2023/04/15 11:12:39;;;;;;;12.45;2.92;;;13.90;99.90;;;;;;5095329;28;20059;-65
2023/04/15 11:15:34;;;;;;;11.73;2.70;;;13.80;99.90;;;;;;5095414;28;20016;-65
2023/04/15 11:18:11;;;;;;;10.25;2.50;;;13.90;99.90;;;;;;5095329;28;20103;-65
2023/04/15 11:20:39;;;;;;;9.20;2.53;;;14.00;99.90;;;;;;5095339;28;20107;-65
2023/04/15 11:23:05;;;;;;;13.68;2.67;;;13.90;99.90;;;;;;5095109;28;20145;-66
2023/04/15 11:25:32;;;;;;;9.45;2.70;;;13.90;99.90;;;;;;5094876;28;20481;-66
2023/04/15 11:28:00;;;;;;;9.95;2.53;;;13.80;99.90;;;;;;5095557;28;20538;-65
2023/04/15 11:30:28;;;;;;;8.73;2.55;;;14.00;99.90;;;;;;5095373;28;20133;-65
2023/04/15 11:33:02;;;;;;;10.20;2.80;;;14.20;99.90;;;;;;5095022;28;20027;-66
2023/04/15 11:35:29;;;;;;;9.38;2.60;;;14.40;99.90;;;;;;5095057;28;20016;-65
2023/04/15 11:37:55;;;;;;;14.60;3.20;;;14.50;99.90;;;;;;5095163;28;20024;-66
2023/04/15 11:40:26;;;;;;;8.68;2.33;;;14.50;99.90;;;;;;5094527;28;20055;-65
2023/04/15 11:43:03;;;;;;;12.48;2.53;;;14.60;99.90;;;;;;5094767;28;20035;-65
2023/04/15 11:45:29;;;;;;;10.90;2.67;;;14.60;99.90;;;;;;5094930;28;20066;-66
2023/04/15 11:48:03;;;;;;;8.43;2.60;;;14.80;99.90;;;;;;5094022;28;20052;-66
2023/04/15 11:50:29;;;;;;;9.13;2.60;;;14.80;99.90;;;;;;5094743;28;20080;-65
2023/04/15 11:53:00;;;;;;;9.25;2.47;;;14.60;99.90;;;;;;5094996;28;20486;-65
2023/04/15 11:55:26;;;;;;;9.40;2.22;;;14.50;99.90;;;;;;5094381;28;20023;-65
2023/04/15 11:58:10;;;;;;;8.75;1.95;;;14.60;99.90;;;;;;5094731;28;20126;-65
2023/04/15 12:00:37;;;;;;;10.02;2.55;;;14.50;99.90;;;;;;5094585;28;20028;-65
2023/04/15 12:03:20;;;;;;;9.60;2.53;;;14.40;99.90;;;;;;5094790;28;20020;-65
2023/04/15 12:06:12;;;;;;;11.40;2.63;;;14.70;99.90;;;;;;5094739;28;20040;-65
2023/04/15 12:08:49;;;;;;;9.27;2.50;;;14.70;99.90;;;;;;5094137;28;20035;-65
2023/04/15 12:11:16;;;;;;;11.88;3.13;;;14.90;99.90;;;;;;5093730;28;20028;-65
2023/04/15 12:13:49;;;;;;;11.55;2.80;;;15.00;99.90;;;;;;5094374;28;20115;-65
2023/04/15 12:16:18;;;;;;;9.95;2.60;;;15.00;99.90;;;;;;5094317;28;20089;-65
2023/04/15 12:18:50;;;;;;;8.90;2.47;;;14.90;99.90;;;;;;5094168;28;20032;-65
2023/04/15 12:21:19;;;;;;;11.57;2.45;;;15.00;99.90;;;;;;5094466;28;20028;-65
2023/04/15 12:23:55;;;;;;;10.23;2.88;;;14.70;99.90;;;;;;5093665;28;20115;-65
2023/04/15 12:26:30;;;;;;;11.80;3.03;;;14.90;99.90;;;;;;5093984;28;20440;-65
2023/04/15 12:29:04;;;;;;;9.40;2.65;;;14.90;99.90;;;;;;5093991;28;20032;-66
2023/04/15 12:31:30;;;;;;;8.77;2.40;;;14.90;99.90;;;;;;5094353;28;20043;-65
2023/04/15 12:33:59;;;;;;;8.88;2.47;;;14.80;99.90;;;;;;5093901;28;20051;-65
2023/04/15 12:36:26;;;;;;;10.05;2.60;;;14.90;99.90;;;;;;5093836;28;20055;-66
2023/04/15 12:38:52;;;;;;;9.10;2.30;;;14.90;99.90;;;;;;5093351;28;20031;-66